Time;durP1;ratioP1;P1;durP2;ratioP2;P2;SDS_P1;SDS_P2;PMS_P1;PMS_P2;Temp;Humidity;BMP_temperature;BMP_pressure;BME280_temperature;BME280_humidity;BME280_pressure;Samples;Min_cycle;Max_cycle;Signal;HPM_P1;HPM_P2
2023/04/09 00:01:09;;;;;;;47.00;37.97;;;;;;;11.63;67.39;102283.41;3616821;39;20073;-70
2023/04/09 00:03:35;;;;;;;45.88;36.85;;;;;;;11.73;67.54;102300.03;3615583;39;20067;-71
2023/04/09 00:06:02;;;;;;;45.05;37.17;;;;;;;11.71;68.50;102287.59;3607789;39;20054;-71
2023/04/09 00:08:28;;;;;;;47.65;38.40;;;;;;;11.75;68.49;102297.28;3613788;39;20055;-70
2023/04/09 00:10:54;;;;;;;47.55;37.13;;;;;;;11.75;68.83;102291.91;3616721;39;20058;-70
2023/04/09 00:13:20;;;;;;;48.42;37.58;;;;;;;11.74;68.04;102296.41;3614325;39;20055;-70
2023/04/09 00:15:46;;;;;;;46.47;37.28;;;;;;;11.72;68.50;102292.91;3614626;39;20086;-70
2023/04/09 00:18:13;;;;;;;46.25;37.33;;;;;;;11.71;68.64;102291.16;3612790;39;20055;-70
2023/04/09 00:20:39;;;;;;;47.78;38.80;;;;;;;11.35;68.80;102240.63;3614289;39;20050;-70
2023/04/09 00:23:05;;;;;;;45.03;36.20;;;;;;;11.57;68.30;102272.00;3613637;39;20090;-69
2023/04/09 00:25:31;;;;;;;42.75;35.55;;;;;;;11.68;69.14;102291.28;3616100;39;20058;-70
2023/04/09 00:27:57;;;;;;;44.15;36.30;;;;;;;11.64;69.04;102281.59;3613020;39;20117;-70
2023/04/09 00:30:22;;;;;;;45.78;36.72;;;;;;;11.67;68.89;102286.84;3613303;39;20058;-70
2023/04/09 00:32:48;;;;;;;43.38;34.85;;;;;;;11.65;69.10;102280.66;3614894;39;20126;-70
2023/04/09 00:35:16;;;;;;;40.97;32.28;;;;;;;11.56;69.28;102262.19;3614514;39;20108;-69
2023/04/09 00:37:42;;;;;;;37.10;32.05;;;;;;;11.56;69.08;102267.56;3615901;39;20051;-69
2023/04/09 00:40:08;;;;;;;37.33;30.85;;;;;;;11.51;69.45;102261.50;3615291;39;20067;-69
2023/04/09 00:42:36;;;;;;;37.35;31.35;;;;;;;11.41;69.24;102252.94;3614087;39;20355;-69
2023/04/09 00:45:02;;;;;;;36.83;30.33;;;;;;;11.63;69.70;102285.22;3614473;39;20050;-68
2023/04/09 00:47:29;;;;;;;35.70;30.60;;;;;;;11.55;69.16;102273.91;3616353;39;20390;-69
2023/04/09 00:49:56;;;;;;;37.20;29.67;;;;;;;11.62;70.04;102286.16;3612754;39;20404;-69
2023/04/09 00:52:24;;;;;;;37.30;30.52;;;;;;;11.61;70.12;102284.44;3613063;39;20402;-69
2023/04/09 00:54:51;;;;;;;33.10;28.02;;;;;;;11.59;69.75;102275.53;3613282;39;20050;-69
2023/04/09 00:57:18;;;;;;;34.20;28.95;;;;;;;11.15;69.69;102197.53;3612660;39;20081;-69
2023/04/09 00:59:44;;;;;;;33.60;28.02;;;;;;;11.59;70.03;102273.69;3614713;39;20075;-69
2023/04/09 01:02:11;;;;;;;32.55;27.17;;;;;;;11.43;69.62;102243.00;3611378;39;20066;-69
2023/04/09 01:04:40;;;;;;;31.80;27.13;;;;;;;11.51;70.24;102262.41;3614210;39;20150;-70
2023/04/09 01:07:39;;;;;;;31.73;26.30;;;;;;;11.55;69.76;102266.72;3604097;39;20313;-70
2023/04/09 01:10:10;;;;;;;31.70;26.88;;;;;;;11.55;70.55;102263.16;3613563;39;20050;-69
2023/04/09 01:13:06;;;;;;;31.50;25.92;;;;;;;11.51;70.43;102258.81;3617574;39;20397;-70
2023/04/09 01:15:42;;;;;;;30.60;26.02;;;;;;;11.21;70.41;102216.09;3617477;39;20057;-69
2023/04/09 01:18:43;;;;;;;31.80;26.45;;;;;;;11.50;70.56;102259.75;3619225;39;20595;-69
2023/04/09 01:21:30;;;;;;;33.45;26.55;;;;;;;11.50;70.69;102260.63;3609257;39;20055;-70
2023/04/09 01:24:50;;;;;;;31.13;26.10;;;;;;;11.48;71.00;102250.84;3617184;39;20051;-68
2023/04/09 01:27:17;;;;;;;31.30;25.80;;;;;;;11.47;71.19;102260.75;3614517;39;20058;-69
2023/04/09 01:29:51;;;;;;;32.10;25.48;;;;;;;11.46;70.80;102253.63;3615846;39;20400;-69
2023/04/09 01:32:21;;;;;;;32.78;26.80;;;;;;;11.33;71.57;102231.75;3615396;39;20055;-69
2023/04/09 01:34:49;;;;;;;33.22;26.40;;;;;;;11.14;71.93;102201.16;3615784;39;20089;-70
2023/04/09 01:37:17;;;;;;;31.55;26.63;;;;;;;11.44;70.96;102257.31;3616131;39;20123;-69
2023/04/09 01:39:45;;;;;;;30.45;25.17;;;;;;;11.46;71.55;102255.47;3611422;39;20055;-69
2023/04/09 01:42:14;;;;;;;31.88;25.27;;;;;;;11.46;71.44;102260.84;3619034;39;20053;-70
2023/04/09 01:44:44;;;;;;;33.47;25.95;;;;;;;11.47;71.02;102257.19;3618508;39;20094;-70
2023/04/09 01:47:12;;;;;;;32.65;25.98;;;;;;;11.47;71.39;102254.50;3616190;39;20066;-69
2023/04/09 01:49:40;;;;;;;34.00;26.98;;;;;;;11.34;71.75;102233.47;3616891;39;20051;-70
2023/04/09 01:52:06;;;;;;;32.35;26.30;;;;;;;11.41;71.63;102244.84;3615534;39;20074;-70
2023/04/09 01:54:32;;;;;;;32.78;26.00;;;;;;;11.41;71.72;102246.69;3615974;39;20381;-70
2023/04/09 01:56:57;;;;;;;32.58;26.63;;;;;;;11.38;72.57;102245.91;3617500;39;20053;-70
2023/04/09 01:59:23;;;;;;;34.70;27.70;;;;;;;11.42;72.06;102243.03;3615976;39;20082;-70
2023/04/09 02:02:04;;;;;;;32.53;27.08;;;;;;;11.41;72.06;102247.56;3616870;39;20373;-70
2023/04/09 02:04:39;;;;;;;36.03;27.67;;;;;;;11.40;71.79;102248.50;3616608;39;20147;-70
2023/04/09 02:07:28;;;;;;;33.53;27.83;;;;;;;11.38;72.64;102245.91;3616234;39;20097;-71
2023/04/09 02:09:58;;;;;;;34.83;27.25;;;;;;;11.37;72.63;102252.19;3618850;39;20118;-70
2023/04/09 02:12:25;;;;;;;36.80;28.80;;;;;;;11.36;72.63;102249.59;3617050;39;20070;-71
2023/04/09 02:14:53;;;;;;;32.58;27.20;;;;;;;11.36;71.83;102242.38;3617719;39;20094;-71
2023/04/09 02:17:19;;;;;;;37.47;29.55;;;;;;;11.35;71.92;102246.03;3616894;39;20057;-71
2023/04/09 02:19:49;;;;;;;34.72;27.30;;;;;;;11.15;72.38;102213.66;3612208;39;20062;-71
2023/04/09 02:22:16;;;;;;;36.40;29.48;;;;;;;11.17;72.41;102221.69;3614559;39;20781;-71
2023/04/09 02:24:41;;;;;;;38.35;29.45;;;;;;;11.28;72.38;102233.75;3609294;39;20309;-70
2023/04/09 02:27:08;;;;;;;34.83;28.38;;;;;;;11.32;72.99;102240.78;3615444;39;20770;-71
2023/04/09 02:29:33;;;;;;;39.17;29.63;;;;;;;11.31;72.63;102236.31;3613811;39;20043;-71
2023/04/09 02:31:59;;;;;;;38.80;30.52;;;;;;;11.03;72.80;102181.88;3608892;39;20054;-71
2023/04/09 02:34:25;;;;;;;37.85;30.17;;;;;;;11.33;72.67;102236.25;3619583;39;20054;-71
2023/04/09 02:36:51;;;;;;;40.58;30.75;;;;;;;11.33;72.65;102237.13;3618878;39;20108;-72
2023/04/09 02:39:16;;;;;;;37.50;29.67;;;;;;;11.31;72.67;102233.59;3618651;39;20278;-72
2023/04/09 02:41:42;;;;;;;38.75;30.75;;;;;;;11.33;73.14;102237.13;3620868;39;20057;-72
2023/04/09 02:44:08;;;;;;;37.35;29.95;;;;;;;11.34;72.44;102236.16;3619739;39;20054;-72
2023/04/09 02:46:33;;;;;;;37.42;30.63;;;;;;;11.32;73.08;102234.47;3614064;39;20053;-72
2023/04/09 02:48:59;;;;;;;39.97;31.52;;;;;;;11.31;73.04;102227.34;3616561;39;20312;-73
2023/04/09 02:51:26;;;;;;;38.85;30.70;;;;;;;11.33;72.93;102236.25;3617749;39;20050;-72
2023/04/09 02:53:52;;;;;;;43.00;31.98;;;;;;;11.07;73.10;102191.59;3621232;39;20062;-73
2023/04/09 02:56:17;;;;;;;38.33;30.30;;;;;;;11.32;72.54;102230.00;3617077;39;20057;-73
2023/04/09 02:58:43;;;;;;;41.60;31.05;;;;;;;11.07;72.72;102192.47;3618528;39;20039;-73
2023/04/09 03:01:09;;;;;;;40.35;31.35;;;;;;;11.29;72.40;102224.75;3610221;39;20413;-73
2023/04/09 03:03:36;;;;;;;42.15;33.13;;;;;;;11.28;72.47;102225.66;3614822;39;20074;-72
2023/04/09 03:06:01;;;;;;;41.15;32.83;;;;;;;10.55;73.36;102097.78;3613153;39;20396;-73
2023/04/09 03:08:27;;;;;;;44.47;33.40;;;;;;;11.30;73.54;102220.22;3613837;39;20058;-73
2023/04/09 03:10:53;;;;;;;44.08;34.28;;;;;;;11.26;72.55;102216.78;3605956;39;20050;-73
2023/04/09 03:13:18;;;;;;;44.83;33.15;;;;;;;11.26;73.15;102208.72;3614223;39;20350;-73
2023/04/09 03:15:44;;;;;;;43.15;31.90;;;;;;;11.23;73.13;102216.06;3613000;39;20370;-73
2023/04/09 03:18:09;;;;;;;44.70;33.30;;;;;;;11.17;72.90;102209.09;3615180;39;20089;-74
2023/04/09 03:20:38;;;;;;;42.17;32.22;;;;;;;11.19;73.19;102212.59;3616086;39;20095;-74
2023/04/09 03:23:04;;;;;;;44.35;33.53;;;;;;;11.17;73.77;102206.41;3613161;39;20151;-73
2023/04/09 03:25:29;;;;;;;48.15;35.15;;;;;;;11.16;73.73;102207.34;3618271;39;20389;-73
2023/04/09 03:27:55;;;;;;;44.35;33.13;;;;;;;11.12;72.53;102211.09;3613471;39;20324;-73
2023/04/09 03:30:20;;;;;;;44.05;32.45;;;;;;;11.09;73.06;102211.22;3619653;39;20050;-73
2023/04/09 03:32:46;;;;;;;45.03;33.85;;;;;;;10.74;73.21;102151.69;3612391;39;20380;-73
2023/04/09 03:35:11;;;;;;;43.50;32.78;;;;;;;11.06;73.02;102208.66;3615926;39;20061;-74
2023/04/09 03:37:37;;;;;;;44.67;32.40;;;;;;;11.03;73.58;102203.41;3613861;39;20058;-74
2023/04/09 03:40:03;;;;;;;47.75;34.50;;;;;;;11.01;72.89;102205.31;3614502;39;20065;-74
2023/04/09 03:42:29;;;;;;;48.22;34.95;;;;;;;10.99;72.88;102204.50;3619993;39;20042;-74
2023/04/09 03:44:54;;;;;;;44.35;33.72;;;;;;;10.97;73.33;102201.84;3616021;39;20103;-74
2023/04/09 03:47:20;;;;;;;45.88;34.35;;;;;;;10.89;73.30;102187.84;3616361;39;20403;-73
2023/04/09 03:49:46;;;;;;;45.83;34.33;;;;;;;10.92;74.18;102198.50;3614681;39;20148;-73
2023/04/09 03:52:11;;;;;;;43.63;33.25;;;;;;;10.89;74.13;102194.09;3617131;39;20047;-73
2023/04/09 03:54:37;;;;;;;48.08;35.10;;;;;;;10.64;74.18;102155.69;3613810;39;20055;-74
2023/04/09 03:57:03;;;;;;;43.13;33.63;;;;;;;10.66;73.91;102153.84;3614999;39;20063;-74
2023/04/09 03:59:29;;;;;;;46.05;34.45;;;;;;;10.89;74.63;102196.78;3614661;39;20099;-74
2023/04/09 04:01:54;;;;;;;45.90;35.05;;;;;;;10.68;74.24;102162.69;3612902;39;20050;-73
2023/04/09 04:04:20;;;;;;;43.83;32.42;;;;;;;10.78;73.63;102185.59;3614255;39;20046;-73
2023/04/09 04:06:45;;;;;;;43.83;32.97;;;;;;;10.64;74.16;102167.34;3614058;39;20077;-74
2023/04/09 04:09:11;;;;;;;44.80;34.22;;;;;;;10.79;74.24;102195.44;3614349;39;20062;-74
2023/04/09 04:11:36;;;;;;;42.38;32.55;;;;;;;10.70;74.05;102182.34;3612939;39;20085;-74
2023/04/09 04:14:02;;;;;;;42.72;31.15;;;;;;;10.75;73.65;102196.50;3613887;39;20054;-74
2023/04/09 04:16:28;;;;;;;41.65;31.02;;;;;;;10.73;72.78;102203.75;3613779;39;20300;-72
2023/04/09 04:18:53;;;;;;;44.40;32.35;;;;;;;10.68;73.22;102206.59;3614265;39;20042;-72
2023/04/09 04:21:19;;;;;;;43.20;32.65;;;;;;;10.65;73.52;102204.03;3614264;39;21644;-73
2023/04/09 04:23:44;;;;;;;41.85;30.88;;;;;;;10.65;73.45;102204.03;3614880;39;20066;-73
2023/04/09 04:26:11;;;;;;;40.40;31.02;;;;;;;10.65;73.06;102204.03;3612173;39;20073;-71
2023/04/09 04:28:38;;;;;;;41.03;31.30;;;;;;;10.66;73.14;102196.88;3617248;39;20047;-72
2023/04/09 04:31:11;;;;;;;42.25;31.52;;;;;;;10.66;73.01;102191.50;3617046;39;20410;-72
2023/04/09 04:33:39;;;;;;;43.22;31.77;;;;;;;10.63;73.42;102197.00;3615927;39;20051;-72
2023/04/09 04:36:11;;;;;;;41.92;31.10;;;;;;;10.59;73.27;102192.66;3615672;39;20438;-71
2023/04/09 04:38:38;;;;;;;41.42;30.27;;;;;;;10.55;73.02;102196.41;3620071;39;20103;-70
2023/04/09 04:41:04;;;;;;;46.40;31.98;;;;;;;10.51;73.50;102201.03;3617395;39;20066;-71
2023/04/09 04:43:31;;;;;;;43.65;30.95;;;;;;;10.45;73.77;102193.22;3613040;39;20345;-70
2023/04/09 04:45:57;;;;;;;46.33;31.00;;;;;;;10.18;73.45;102174.50;3604987;39;20050;-70
2023/04/09 04:48:23;;;;;;;41.42;31.33;;;;;;;10.30;73.98;102200.03;3615237;39;20304;-71
2023/04/09 04:50:56;;;;;;;45.67;32.17;;;;;;;10.20;73.44;102204.00;3611906;39;20057;-72
2023/04/09 04:53:22;;;;;;;44.83;31.15;;;;;;;10.10;74.24;102202.59;3613287;39;20059;-70
2023/04/09 04:55:47;;;;;;;45.70;31.98;;;;;;;10.02;74.49;102207.38;3611715;39;20054;-70
2023/04/09 04:58:13;;;;;;;38.83;29.33;;;;;;;9.91;74.28;102205.97;3612617;39;20059;-70
2023/04/09 05:00:38;;;;;;;39.00;28.63;;;;;;;9.79;74.34;102209.09;3614516;39;20411;-70
2023/04/09 05:03:04;;;;;;;42.00;29.23;;;;;;;9.73;74.85;102206.63;3612091;39;20070;-70
2023/04/09 05:05:29;;;;;;;38.72;27.85;;;;;;;9.65;74.43;102206.94;3613362;39;20369;-71
2023/04/09 05:07:55;;;;;;;40.10;27.83;;;;;;;9.55;74.83;102205.50;3612134;39;20051;-72
2023/04/09 05:10:21;;;;;;;39.60;27.08;;;;;;;9.19;74.81;102156.66;3612530;39;20058;-73
2023/04/09 05:12:46;;;;;;;38.50;27.27;;;;;;;9.43;74.73;102200.56;3612632;39;20327;-72
2023/04/09 05:15:12;;;;;;;39.83;27.35;;;;;;;9.35;74.86;102200.81;3613123;39;20055;-72
2023/04/09 05:17:42;;;;;;;36.70;27.52;;;;;;;9.32;75.42;102205.41;3615322;39;20390;-73
2023/04/09 05:20:08;;;;;;;41.30;29.08;;;;;;;9.27;75.50;102205.59;3612916;39;20139;-72
2023/04/09 05:22:35;;;;;;;39.97;28.00;;;;;;;9.07;75.79;102182.13;3612266;39;20114;-73
2023/04/09 05:25:01;;;;;;;40.50;28.35;;;;;;;9.18;75.38;102211.25;3606633;39;20046;-74
2023/04/09 05:27:27;;;;;;;56.63;38.47;;;;;;;9.10;75.31;102197.22;3612663;39;20412;-74
2023/04/09 05:29:53;;;;;;;45.38;31.60;;;;;;;9.11;75.51;102205.22;3613169;39;20070;-73
2023/04/09 05:32:19;;;;;;;40.38;27.73;;;;;;;8.85;75.82;102168.56;3607227;39;20059;-73
2023/04/09 05:34:44;;;;;;;38.40;27.67;;;;;;;9.07;76.32;102206.28;3613947;39;20043;-73
2023/04/09 05:37:10;;;;;;;40.63;28.00;;;;;;;9.09;76.17;102203.53;3614310;39;20055;-72
2023/04/09 05:39:36;;;;;;;40.40;28.42;;;;;;;9.06;75.67;102201.81;3612594;39;20065;-72
2023/04/09 05:42:01;;;;;;;40.53;28.25;;;;;;;9.11;76.10;102204.34;3613028;39;20059;-73
2023/04/09 05:44:27;;;;;;;39.65;27.45;;;;;;;9.01;76.04;102183.19;3614093;39;20389;-74
2023/04/09 05:46:53;;;;;;;40.70;28.77;;;;;;;9.11;75.72;102205.22;3613647;39;20046;-73
2023/04/09 05:49:18;;;;;;;38.35;26.15;;;;;;;9.10;75.78;102206.13;3614924;39;20318;-73
2023/04/09 05:51:44;;;;;;;40.35;27.33;;;;;;;9.09;75.49;102201.72;3614742;39;20057;-73
2023/04/09 05:54:09;;;;;;;40.80;28.08;;;;;;;9.12;75.43;102208.78;3614186;39;20589;-73
2023/04/09 05:56:35;;;;;;;39.72;27.60;;;;;;;8.97;75.89;102184.22;3613138;39;20059;-72
2023/04/09 05:59:01;;;;;;;36.95;26.02;;;;;;;9.13;75.65;102210.53;3618561;39;20062;-72
2023/04/09 06:01:26;;;;;;;40.08;27.90;;;;;;;9.10;75.41;102203.44;3617035;39;20094;-73
2023/04/09 06:03:52;;;;;;;39.03;27.38;;;;;;;9.12;75.08;102211.47;3616198;39;20051;-73
2023/04/09 06:06:17;;;;;;;36.47;26.77;;;;;;;9.16;75.71;102219.34;3616334;39;20499;-73
2023/04/09 06:08:44;;;;;;;39.15;28.85;;;;;;;9.22;75.30;102220.94;3607107;39;20546;-73
2023/04/09 06:11:11;;;;;;;41.20;28.20;;;;;;;8.51;74.92;102086.56;3607917;39;20083;-72
2023/04/09 06:13:37;;;;;;;38.63;27.42;;;;;;;9.32;74.92;102227.75;3605541;39;20143;-72
2023/04/09 06:16:07;;;;;;;39.05;28.10;;;;;;;9.02;74.30;102167.97;3612473;39;20066;-73
2023/04/09 06:18:34;;;;;;;39.53;27.38;;;;;;;9.42;74.79;102220.25;3614949;39;20063;-73
2023/04/09 06:21:07;;;;;;;37.80;27.75;;;;;;;9.18;74.64;102181.75;3614257;39;20073;-72
2023/04/09 06:23:35;;;;;;;40.83;27.77;;;;;;;9.49;74.70;102221.81;3616752;39;20071;-73
2023/04/09 06:26:01;;;;;;;36.47;27.33;;;;;;;9.51;73.41;102215.47;3615007;39;20047;-73
2023/04/09 06:28:28;;;;;;;39.95;27.95;;;;;;;9.45;73.44;102202.28;3614469;39;20058;-73
2023/04/09 06:30:54;;;;;;;38.60;28.33;;;;;;;9.60;74.03;102218.75;3616930;39;20058;-72
2023/04/09 06:33:20;;;;;;;36.25;27.75;;;;;;;9.69;73.49;102218.44;3618468;39;20058;-72
2023/04/09 06:35:48;;;;;;;37.28;27.58;;;;;;;9.48;72.89;102172.63;3608660;39;20392;-72
2023/04/09 06:38:17;;;;;;;35.78;26.95;;;;;;;9.81;72.50;102207.25;3606773;39;20050;-72
2023/04/09 06:40:43;;;;;;;38.70;27.65;;;;;;;10.09;72.35;102233.97;3604335;39;20323;-72
2023/04/09 06:43:09;;;;;;;37.60;26.55;;;;;;;10.23;71.48;102230.75;3614971;39;20054;-72
2023/04/09 06:45:36;;;;;;;36.60;27.02;;;;;;;10.20;70.30;102204.00;3616207;39;20050;-70
2023/04/09 06:48:03;;;;;;;37.05;27.92;;;;;;;10.49;69.97;102234.28;3619771;39;20646;-71
2023/04/09 06:50:29;;;;;;;37.00;27.00;;;;;;;10.63;69.38;102240.88;3617817;39;20069;-73
2023/04/09 06:52:56;;;;;;;34.85;26.83;;;;;;;10.78;70.01;102239.38;3606442;39;20509;-72
2023/04/09 06:55:22;;;;;;;35.30;26.55;;;;;;;10.95;68.74;102237.84;3609747;39;20047;-71
2023/04/09 06:57:47;;;;;;;37.67;27.02;;;;;;;10.98;68.15;102230.53;3614210;39;20050;-72
2023/04/09 07:00:13;;;;;;;34.40;26.27;;;;;;;11.14;67.79;102241.53;3614384;39;20074;-71
2023/04/09 07:02:39;;;;;;;33.63;26.40;;;;;;;11.06;67.23;102208.66;3604599;39;20066;-71
2023/04/09 07:05:05;;;;;;;36.05;26.55;;;;;;;11.38;66.36;102237.81;3613627;39;20359;-71
2023/04/09 07:07:30;;;;;;;35.28;26.98;;;;;;;11.49;66.98;102241.88;3615168;39;20163;-72
2023/04/09 07:09:56;;;;;;;35.15;26.27;;;;;;;11.60;66.15;102240.44;3606596;39;20381;-70
2023/04/09 07:12:30;;;;;;;36.25;27.02;;;;;;;11.62;65.97;102232.31;3614858;39;20054;-71
2023/04/09 07:15:01;;;;;;;35.42;26.38;;;;;;;11.66;65.98;102239.28;3614854;39;20061;-70
2023/04/09 07:17:27;;;;;;;34.42;27.30;;;;;;;11.81;65.15;102243.16;3614932;39;20050;-70
2023/04/09 07:19:53;;;;;;;36.45;26.60;;;;;;;11.65;65.48;102189.06;3615631;39;20102;-71
2023/04/09 07:22:22;;;;;;;34.50;25.80;;;;;;;11.66;64.56;102152.22;3618158;39;20063;-70
2023/04/09 07:24:54;;;;;;;35.45;27.00;;;;;;;12.27;63.25;102247.38;3618175;39;20053;-71
2023/04/09 07:27:27;;;;;;;32.95;24.58;;;;;;;12.16;62.84;102189.50;3614910;39;20080;-70
2023/04/09 07:30:02;;;;;;;;;;;;;;;12.46;62.08;102235.69;3615187;39;20066;-69
2023/04/09 07:32:28;;;;;;;33.55;25.00;;;;;;;12.54;63.50;102238.94;3615337;39;19939;-69
2023/04/09 07:34:54;;;;;;;32.70;26.65;;;;;;;12.49;62.12;102209.47;3619304;39;20053;-68
2023/04/09 07:37:20;;;;;;;31.77;25.58;;;;;;;12.38;61.89;102154.31;3615098;39;20061;-69
2023/04/09 07:39:47;;;;;;;32.78;26.75;;;;;;;12.97;60.54;102247.63;3617269;39;20047;-69
2023/04/09 07:42:13;;;;;;;34.08;28.20;;;;;;;13.05;60.91;102250.84;3604021;39;20131;-68
2023/04/09 07:44:38;;;;;;;33.25;27.08;;;;;;;13.13;61.54;102248.66;3615219;39;20058;-68
2023/04/09 07:47:07;;;;;;;36.90;27.33;;;;;;;13.22;60.53;102248.19;3614662;39;20062;-69
2023/04/09 07:49:36;;;;;;;33.72;26.20;;;;;;;13.48;60.91;102248.72;3616952;39;20364;-68
2023/04/09 07:52:04;;;;;;;34.42;26.45;;;;;;;13.70;59.40;102243.94;3614458;39;20072;-68
2023/04/09 07:54:30;;;;;;;34.83;27.48;;;;;;;13.75;59.25;102218.50;3617204;39;20065;-69
2023/04/09 07:56:56;;;;;;;31.23;26.42;;;;;;;14.10;58.36;102251.75;3618226;39;20069;-70
2023/04/09 07:59:23;;;;;;;32.03;26.38;;;;;;;13.94;57.23;102203.03;3612852;39;20417;-70
2023/04/09 08:01:49;;;;;;;34.50;27.48;;;;;;;14.32;56.97;102249.63;3616438;39;20054;-67
2023/04/09 08:04:15;;;;;;;33.03;27.10;;;;;;;14.43;56.97;102249.06;3613496;39;20073;-68
2023/04/09 08:06:40;;;;;;;33.65;27.25;;;;;;;14.45;56.56;102236.31;3617027;39;20053;-69
2023/04/09 08:09:06;;;;;;;33.13;27.35;;;;;;;14.56;56.09;102239.34;3613157;39;20332;-69
2023/04/09 08:11:32;;;;;;;33.50;27.25;;;;;;;14.70;55.83;102243.09;3615212;39;20466;-69
2023/04/09 08:14:01;;;;;;;32.80;27.27;;;;;;;14.86;56.97;102241.25;3617433;39;20414;-69
2023/04/09 08:16:28;;;;;;;33.17;27.60;;;;;;;15.04;55.17;102233.91;3614702;39;20042;-69
2023/04/09 08:18:55;;;;;;;33.53;27.95;;;;;;;15.19;55.53;102243.84;3617514;39;20103;-70
2023/04/09 08:21:20;;;;;;;31.75;26.75;;;;;;;15.09;54.50;102207.41;3613570;39;20062;-70
2023/04/09 08:23:46;;;;;;;33.08;27.33;;;;;;;15.46;54.76;102233.19;3616405;39;20094;-69
2023/04/09 08:26:12;;;;;;;32.60;26.73;;;;;;;15.54;53.67;102244.47;3606887;39;20054;-70
2023/04/09 08:28:37;;;;;;;34.03;27.70;;;;;;;15.37;54.03;102238.31;3612011;39;20355;-70
2023/04/09 08:31:03;;;;;;;31.60;27.73;;;;;;;15.20;54.38;102242.00;3614145;39;20062;-71
2023/04/09 08:33:29;;;;;;;34.50;28.00;;;;;;;15.09;55.27;102238.06;3613855;39;20066;-70
2023/04/09 08:35:54;;;;;;;32.40;27.98;;;;;;;15.21;55.56;102235.63;3614772;39;20050;-70
2023/04/09 08:38:20;;;;;;;34.25;27.05;;;;;;;15.52;54.60;102240.97;3615475;39;20351;-70
2023/04/09 08:40:46;;;;;;;33.55;27.77;;;;;;;15.81;54.19;102226.66;3621213;39;20058;-70
2023/04/09 08:43:18;;;;;;;31.75;27.52;;;;;;;16.16;53.03;102235.28;3620155;39;20053;-69
2023/04/09 08:45:44;;;;;;;32.00;27.60;;;;;;;16.10;52.47;102238.38;3607020;39;20385;-70
2023/04/09 08:48:13;;;;;;;34.80;27.50;;;;;;;15.69;52.94;102209.28;3619618;39;20054;-70
2023/04/09 08:50:39;;;;;;;32.47;27.80;;;;;;;15.81;53.98;102238.34;3608173;39;20047;-70
2023/04/09 08:53:08;;;;;;;32.42;27.20;;;;;;;15.91;53.35;102233.25;3618428;39;20058;-70
2023/04/09 08:55:34;;;;;;;34.05;28.05;;;;;;;15.88;54.09;102237.00;3615768;39;20055;-70
2023/04/09 08:58:04;;;;;;;34.10;27.42;;;;;;;15.87;54.02;102235.28;3613636;39;20050;-70
2023/04/09 09:00:30;;;;;;;31.17;27.77;;;;;;;15.79;53.85;102237.56;3617247;39;20058;-70
2023/04/09 09:03:04;;;;;;;34.30;28.90;;;;;;;15.76;54.08;102233.22;3619224;39;20053;-70
2023/04/09 09:05:37;;;;;;;33.47;28.77;;;;;;;15.72;54.32;102236.22;3614252;39;20051;-70
2023/04/09 09:08:03;;;;;;;33.38;27.13;;;;;;;15.69;53.87;102239.09;3615538;39;20069;-70
2023/04/09 09:10:40;;;;;;;33.35;28.08;;;;;;;15.72;54.37;102238.91;3616759;39;20544;-70
2023/04/09 09:13:22;;;;;;;32.90;27.85;;;;;;;15.61;53.98;102231.41;3617379;39;20436;-70
2023/04/09 09:15:55;;;;;;;32.63;27.70;;;;;;;15.33;54.49;102194.25;3618329;39;20058;-70
2023/04/09 09:18:42;;;;;;;30.00;26.30;;;;;;;15.47;54.40;102229.50;3613323;39;20047;-70
2023/04/09 09:21:16;;;;;;;32.85;28.42;;;;;;;15.56;54.34;102239.81;3615770;39;20047;-70
2023/04/09 09:23:43;;;;;;;33.28;27.38;;;;;;;15.56;54.61;102225.38;3615863;39;20473;-70
2023/04/09 09:26:37;;;;;;;32.08;26.70;;;;;;;15.75;54.01;102226.03;3618857;39;20046;-70
2023/04/09 09:29:04;;;;;;;31.55;27.13;;;;;;;15.84;53.78;102223.75;3616545;39;20397;-70
2023/04/09 09:31:30;;;;;;;33.83;28.10;;;;;;;16.27;54.50;102221.94;3616228;39;20055;-70
2023/04/09 09:33:55;;;;;;;30.77;26.25;;;;;;;16.61;50.94;102215.19;3619901;39;20059;-70
2023/04/09 09:36:34;;;;;;;31.63;26.42;;;;;;;16.52;51.15;102215.78;3616227;39;20046;-69
2023/04/09 09:39:04;;;;;;;30.60;25.92;;;;;;;16.74;51.30;102220.69;3606165;39;20061;-70
2023/04/09 09:41:29;;;;;;;31.75;26.55;;;;;;;17.15;51.08;102223.41;3617091;39;20428;-70
2023/04/09 09:43:55;;;;;;;30.58;25.45;;;;;;;17.35;50.33;102189.44;3618760;39;20091;-70
2023/04/09 09:46:25;;;;;;;29.70;24.35;;;;;;;17.89;49.40;102215.66;3618034;39;20190;-70
2023/04/09 09:48:50;;;;;;;26.98;23.95;;;;;;;18.16;47.29;102212.81;3618321;39;20087;-69
2023/04/09 09:51:18;;;;;;;29.02;23.75;;;;;;;18.47;47.24;102205.16;3609277;39;20050;-70
2023/04/09 09:53:50;;;;;;;28.73;24.85;;;;;;;18.65;45.62;102202.91;3614757;39;20051;-70
2023/04/09 09:56:21;;;;;;;28.17;24.25;;;;;;;18.68;46.72;102195.41;3614435;39;20112;-70
2023/04/09 09:59:06;;;;;;;25.83;23.02;;;;;;;18.10;44.73;102153.38;3618462;39;20091;-69
2023/04/09 10:01:34;;;;;;;26.75;23.30;;;;;;;17.95;46.74;102189.84;3616557;39;20054;-70
2023/04/09 10:04:04;;;;;;;27.83;23.80;;;;;;;17.83;46.36;102192.47;3617839;39;20053;-70
2023/04/09 10:06:37;;;;;;;27.23;23.08;;;;;;;17.55;47.83;102173.59;3610745;39;20828;-69
2023/04/09 10:09:05;;;;;;;24.35;21.10;;;;;;;17.35;47.48;102188.59;3611899;39;20047;-70
2023/04/09 10:11:35;;;;;;;21.40;18.85;;;;;;;17.12;46.73;102192.84;3616328;39;20067;-70
2023/04/09 10:14:02;;;;;;;20.80;18.52;;;;;;;16.90;47.93;102193.41;3620733;39;20390;-67
2023/04/09 10:16:29;;;;;;;15.20;12.90;;;;;;;16.71;46.06;102188.28;3619731;39;20062;-67
2023/04/09 10:18:56;;;;;;;16.33;14.35;;;;;;;16.54;46.40;102188.56;3607933;39;20401;-67
2023/04/09 10:21:44;;;;;;;18.55;15.43;;;;;;;16.70;47.56;102175.69;3617422;39;20127;-67
2023/04/09 10:24:11;;;;;;;17.17;14.23;;;;;;;16.92;46.37;102178.75;3623249;39;20057;-68
2023/04/09 10:26:41;;;;;;;19.13;16.08;;;;;;;17.15;47.98;102168.19;3621417;39;20063;-67
2023/04/09 10:29:14;;;;;;;19.45;15.45;;;;;;;17.30;46.20;102167.13;3620314;39;20050;-68
2023/04/09 10:32:06;;;;;;;18.23;15.57;;;;;;;17.33;46.77;102168.78;3618118;39;20057;-68
2023/04/09 10:34:39;;;;;;;18.17;15.35;;;;;;;17.19;44.67;102164.31;3615270;39;20062;-68
2023/04/09 10:37:11;;;;;;;20.17;17.58;;;;;;;17.06;46.13;102171.53;3609932;39;20050;-68
2023/04/09 10:39:46;;;;;;;18.73;15.68;;;;;;;17.11;46.49;102161.22;3618773;39;20390;-67
2023/04/09 10:42:39;;;;;;;19.40;16.40;;;;;;;17.16;45.89;102153.63;3606628;39;20050;-67
2023/04/09 10:45:15;;;;;;;15.77;14.05;;;;;;;17.63;46.43;102154.88;3613899;39;20082;-67
2023/04/09 10:47:42;;;;;;;22.27;17.80;;;;;;;18.06;44.39;102162.75;3615920;39;20063;-67
2023/04/09 10:50:26;;;;;;;61.83;49.20;;;;;;;18.27;43.78;102150.31;3617810;39;20062;-67
2023/04/09 10:52:59;;;;;;;15.98;12.93;;;;;;;18.45;42.76;102141.75;3616631;39;20062;-68
2023/04/09 10:55:40;;;;;;;19.35;14.65;;;;;;;18.72;41.20;102141.56;3607358;39;20039;-69
2023/04/09 10:58:09;;;;;;;15.65;13.93;;;;;;;18.96;42.08;102125.22;3619231;39;20058;-69
2023/04/09 11:00:41;;;;;;;16.98;15.00;;;;;;;19.27;40.26;102139.22;3614460;39;20124;-68
2023/04/09 11:03:23;;;;;;;18.52;16.52;;;;;;;19.58;41.07;102143.13;3607737;39;20084;-69
2023/04/09 11:06:07;;;;;;;21.35;18.52;;;;;;;19.81;40.41;102144.06;3616308;39;20051;-68
2023/04/09 11:08:35;;;;;;;19.50;16.45;;;;;;;19.86;39.40;102136.38;3615705;39;20039;-68
2023/04/09 11:11:01;;;;;;;20.08;17.98;;;;;;;19.44;40.02;102136.91;3614534;39;20397;-68
2023/04/09 11:13:29;;;;;;;19.23;16.25;;;;;;;19.08;41.62;102129.72;3618372;39;20058;-68
2023/04/09 11:15:57;;;;;;;18.63;15.65;;;;;;;19.40;42.20;102124.47;3617837;39;20404;-68
2023/04/09 11:18:29;;;;;;;16.80;15.00;;;;;;;19.98;42.09;102123.59;3614187;39;20365;-69